Ewell, Maryland
Current Conditions -  °F | °C
As of 7:53 PM on Monday 24 Nov 2014 (Local Time) from KNUI Reporting Station
Few Clouds Few Clouds  
Wind Chill: 67°   Ceiling: Unl
Heat Index: 67°   Visibility: 10mi
Dew Point: 58°   Wind: 15mph
Humidity: 73%   Direction: 190°S
Pressure: 29.77"   Gusts: NA
Location:  37.99°N, 76.03°W
Report Text: KNUI 250053Z AUTO 19013KT 10SM FEW120 19/14 A2977 RMK AO2 SLP082 T01940144
Loading
Personal Weather Stations






























Interactive Weather Map New forecast layout! Learn more

10-Day Weather Forecast

Advertisements
Track Severe Weather on mobile